createdAt,value
2017-04-13T00:00:17.744Z,0
2017-04-13T00:01:17.719Z,0
2017-04-13T00:02:17.728Z,0
2017-04-13T00:03:17.429Z,0
2017-04-13T00:04:17.782Z,0
2017-04-13T00:05:17.789Z,0
2017-04-13T00:06:17.805Z,0
2017-04-13T00:07:17.289Z,0
2017-04-13T00:08:17.837Z,0
2017-04-13T00:09:17.863Z,0
2017-04-13T00:10:17.554Z,0
2017-04-13T00:11:17.886Z,0
2017-04-13T00:12:17.906Z,0
2017-04-13T00:13:17.923Z,0
2017-04-13T00:14:17.629Z,0
2017-04-13T00:15:17.960Z,0
2017-04-13T00:16:17.971Z,0
2017-04-13T00:17:17.993Z,0
2017-04-13T00:18:17.697Z,0
2017-04-13T00:19:18.028Z,0
2017-04-13T00:20:18.045Z,0
2017-04-13T00:21:18.057Z,0
2017-04-13T00:22:17.763Z,0
2017-04-13T00:23:18.092Z,0
2017-04-13T00:24:17.806Z,0
2017-04-13T00:25:18.124Z,0
2017-04-13T00:26:18.142Z,0
2017-04-13T00:27:18.162Z,0
2017-04-13T00:28:18.181Z,0
2017-04-13T00:29:18.242Z,0
2017-04-13T00:30:18.214Z,0
2017-04-13T00:31:18.233Z,0
2017-04-13T00:32:17.927Z,0
2017-04-13T00:33:18.264Z,0
2017-04-13T00:34:17.972Z,0
2017-04-13T00:35:18.338Z,0
2017-04-13T00:36:18.301Z,0
2017-04-13T00:37:18.014Z,0
2017-04-13T00:38:18.346Z,0
2017-04-13T00:39:18.372Z,0
2017-04-13T00:40:18.379Z,0
2017-04-13T00:41:18.085Z,0
2017-04-13T00:42:18.099Z,0
2017-04-13T00:43:18.430Z,0
2017-04-13T00:44:18.440Z,0
2017-04-13T00:45:18.458Z,0
2017-04-13T00:46:18.474Z,0
2017-04-13T00:47:18.507Z,0
2017-04-13T00:48:18.519Z,0
2017-04-13T00:49:18.536Z,0
2017-04-13T00:50:18.548Z,0
2017-04-13T00:51:18.561Z,0
2017-04-13T00:52:18.588Z,0
2017-04-13T00:53:18.604Z,0
2017-04-13T00:54:18.613Z,0
2017-04-13T00:55:18.332Z,0
2017-04-13T00:56:18.641Z,0
2017-04-13T00:57:18.668Z,0
2017-04-13T00:58:18.696Z,0
2017-04-13T00:59:18.698Z,0
2017-04-13T01:00:18.716Z,0
2017-04-13T01:01:18.738Z,0
2017-04-13T01:02:18.741Z,0
2017-04-13T01:03:18.769Z,0
2017-04-13T01:04:18.786Z,0
2017-04-13T01:05:18.796Z,0
2017-04-13T01:06:18.852Z,0
2017-04-13T01:07:18.623Z,0
2017-04-13T01:08:19.118Z,0
2017-04-13T01:09:19.088Z,0
2017-04-13T01:10:19.102Z,0
2017-04-13T01:11:19.036Z,0
2017-04-13T01:12:19.034Z,0
2017-04-13T01:13:19.043Z,0
2017-04-13T01:14:19.211Z,0
2017-04-13T01:15:19.220Z,0
2017-04-13T01:16:19.081Z,0
2017-04-13T01:17:19.081Z,0
2017-04-13T01:18:19.212Z,0
2017-04-13T01:19:19.222Z,0
2017-04-13T01:20:19.256Z,0
2017-04-13T01:21:19.267Z,0
2017-04-13T01:22:18.850Z,0
2017-04-13T01:23:19.271Z,0
2017-04-13T01:24:19.297Z,0
2017-04-13T01:25:19.004Z,0
2017-04-13T01:26:19.013Z,0
2017-04-13T01:27:19.012Z,0
2017-04-13T01:28:19.205Z,0
2017-04-13T01:29:19.355Z,0
2017-04-13T01:30:19.222Z,0
2017-04-13T01:31:19.234Z,0
2017-04-13T01:32:19.345Z,0
2017-04-13T01:33:19.355Z,0
2017-04-13T01:34:19.366Z,0
2017-04-13T01:35:19.371Z,0
2017-04-13T01:36:19.407Z,0
2017-04-13T01:37:19.332Z,0
2017-04-13T01:38:19.346Z,0
2017-04-13T01:39:19.158Z,0
2017-04-13T01:40:19.386Z,0
2017-04-13T01:41:19.400Z,0
2017-04-13T01:42:19.413Z,0
2017-04-13T01:43:19.433Z,0
2017-04-13T01:44:19.454Z,0
2017-04-13T01:45:19.466Z,0
2017-04-13T01:46:19.483Z,0
2017-04-13T01:47:19.502Z,0
2017-04-13T01:48:19.525Z,0
2017-04-13T01:49:19.531Z,0
2017-04-13T01:50:19.553Z,0
2017-04-13T01:51:19.611Z,0
2017-04-13T01:52:19.590Z,0
2017-04-13T01:53:19.605Z,0
2017-04-13T01:54:19.374Z,0
2017-04-13T01:55:19.683Z,0
2017-04-13T01:56:19.151Z,0
2017-04-13T01:57:19.672Z,0
2017-04-13T01:58:19.372Z,0
2017-04-13T01:59:19.702Z,0
2017-04-13T02:00:19.719Z,0
2017-04-13T02:01:19.744Z,0
2017-04-13T02:02:19.754Z,0
2017-04-13T02:03:19.774Z,0
2017-04-13T02:04:19.479Z,0
2017-04-13T02:05:19.804Z,0
2017-04-13T02:06:19.821Z,0
2017-04-13T02:07:19.848Z,0
2017-04-13T02:08:19.848Z,0
2017-04-13T02:09:19.873Z,0
2017-04-13T02:10:19.886Z,0
2017-04-13T02:11:19.905Z,0
2017-04-13T02:12:19.921Z,0
2017-04-13T02:13:19.946Z,0
2017-04-13T02:14:19.961Z,0
2017-04-13T02:15:19.661Z,0
2017-04-13T02:16:19.675Z,0
2017-04-13T02:17:19.706Z,0
2017-04-13T02:18:19.727Z,0
2017-04-13T02:19:19.730Z,0
2017-04-13T02:20:20.056Z,0
2017-04-13T02:21:20.068Z,0
2017-04-13T02:22:20.089Z,0
2017-04-13T02:23:20.103Z,0
2017-04-13T02:24:19.854Z,0
2017-04-13T02:25:20.142Z,0
2017-04-13T02:26:20.154Z,0
2017-04-13T02:27:20.170Z,0
2017-04-13T02:28:20.194Z,0
2017-04-13T02:29:20.201Z,0
2017-04-13T02:30:20.226Z,0
2017-04-13T02:31:20.247Z,0
2017-04-13T02:32:20.256Z,0
2017-04-13T02:33:20.270Z,0
2017-04-13T02:34:20.297Z,0
2017-04-13T02:35:20.314Z,0
2017-04-13T02:36:20.450Z,0
2017-04-13T02:37:20.441Z,0
2017-04-13T02:38:20.354Z,0
2017-04-13T02:39:20.059Z,0
2017-04-13T02:40:20.398Z,0
2017-04-13T02:41:20.090Z,0
2017-04-13T02:42:20.429Z,0
2017-04-13T02:43:20.440Z,0
2017-04-13T02:44:20.453Z,0
2017-04-13T02:45:20.476Z,0
2017-04-13T02:46:20.174Z,0
2017-04-13T02:47:20.507Z,0
2017-04-13T02:48:20.524Z,0
2017-04-13T02:49:20.542Z,0
2017-04-13T02:50:20.563Z,0
2017-04-13T02:51:20.570Z,0
2017-04-13T02:52:20.593Z,0
2017-04-13T02:53:20.604Z,0
2017-04-13T02:54:20.625Z,0
2017-04-13T02:55:20.640Z,0
2017-04-13T02:56:20.654Z,0
2017-04-13T02:57:20.670Z,0
2017-04-13T02:58:20.688Z,0
2017-04-13T02:59:20.710Z,0
2017-04-13T03:00:20.724Z,0
2017-04-13T03:01:20.731Z,0
2017-04-13T03:02:20.761Z,0
2017-04-13T03:03:20.784Z,0
2017-04-13T03:04:20.791Z,0
2017-04-13T03:05:20.927Z,0
2017-04-13T03:06:20.942Z,0
2017-04-13T03:07:20.952Z,0
2017-04-13T03:08:20.951Z,0
2017-04-13T03:09:20.984Z,0
2017-04-13T03:10:20.894Z,0
2017-04-13T03:11:20.913Z,0
2017-04-13T03:12:20.966Z,0
2017-04-13T03:13:20.944Z,0
2017-04-13T03:14:20.952Z,0
2017-04-13T03:15:20.973Z,0
2017-04-13T03:16:21.106Z,0
2017-04-13T03:17:21.111Z,0
2017-04-13T03:18:21.040Z,0
2017-04-13T03:19:21.049Z,0
2017-04-13T03:20:21.180Z,0
2017-04-13T03:21:21.185Z,0
2017-04-13T03:22:21.206Z,0
2017-04-13T03:23:20.904Z,0
2017-04-13T03:24:20.918Z,0
2017-04-13T03:25:21.231Z,0
2017-04-13T03:26:21.394Z,0
2017-04-13T03:27:21.391Z,0
2017-04-13T03:28:21.401Z,0
2017-04-13T03:29:21.410Z,0
2017-04-13T03:30:21.000Z,0
2017-04-13T03:31:21.330Z,0
2017-04-13T03:32:21.347Z,0
2017-04-13T03:33:21.361Z,0
2017-04-13T03:34:21.302Z,0
2017-04-13T03:35:20.988Z,0
2017-04-13T03:36:21.319Z,0
2017-04-13T03:37:21.413Z,0
2017-04-13T03:38:21.084Z,0
2017-04-13T03:39:21.050Z,0
2017-04-13T03:40:21.074Z,0
2017-04-13T03:41:21.432Z,0
2017-04-13T03:42:21.436Z,0
2017-04-13T03:43:21.437Z,0
2017-04-13T03:44:21.452Z,0
2017-04-13T03:45:21.459Z,0
2017-04-13T03:46:21.606Z,0
2017-04-13T03:47:21.607Z,0
2017-04-13T03:48:21.201Z,0
2017-04-13T03:49:21.546Z,0
2017-04-13T03:50:21.550Z,0
2017-04-13T03:51:21.688Z,0
2017-04-13T03:52:21.681Z,0
2017-04-13T03:53:21.694Z,0
2017-04-13T03:54:21.854Z,0
2017-04-13T03:55:21.729Z,0
2017-04-13T03:56:21.753Z,0
2017-04-13T03:57:21.829Z,0
2017-04-13T03:58:21.829Z,0
2017-04-13T03:59:21.519Z,0
2017-04-13T04:00:21.938Z,0
2017-04-13T04:01:21.915Z,0
2017-04-13T04:02:21.958Z,0
2017-04-13T04:03:21.961Z,0
2017-04-13T04:04:21.935Z,0
2017-04-13T04:05:21.974Z,0
2017-04-13T04:06:21.982Z,0
2017-04-13T04:07:22.006Z,0
2017-04-13T04:08:22.004Z,0
2017-04-13T04:09:22.001Z,0
2017-04-13T04:10:22.009Z,0
2017-04-13T04:11:22.023Z,0
2017-04-13T04:12:21.717Z,0
2017-04-13T04:13:22.034Z,0
2017-04-13T04:14:22.073Z,0
2017-04-13T04:15:21.804Z,0
2017-04-13T04:16:22.011Z,0
2017-04-13T04:17:22.023Z,0
2017-04-13T04:18:22.020Z,0
2017-04-13T04:19:22.037Z,0
2017-04-13T04:20:22.046Z,0
2017-04-13T04:21:22.049Z,0
2017-04-13T04:22:22.074Z,0
2017-04-13T04:23:22.083Z,0
2017-04-13T04:24:22.103Z,0
2017-04-13T04:25:22.243Z,0
2017-04-13T04:26:22.333Z,0
2017-04-13T04:27:22.147Z,0
2017-04-13T04:28:22.162Z,0
2017-04-13T04:29:22.181Z,0
2017-04-13T04:30:22.196Z,0
2017-04-13T04:31:22.383Z,0
2017-04-13T04:32:22.408Z,0
2017-04-13T04:33:22.421Z,0
2017-04-13T04:34:22.413Z,0
2017-04-13T04:35:22.278Z,0
2017-04-13T04:36:22.292Z,0
2017-04-13T04:37:22.299Z,0
2017-04-13T04:38:22.318Z,0
2017-04-13T04:39:22.339Z,0
2017-04-13T04:40:22.064Z,0
2017-04-13T04:41:22.375Z,0
2017-04-13T04:42:22.523Z,0
2017-04-13T04:43:22.536Z,0
2017-04-13T04:44:22.541Z,0
2017-04-13T04:45:22.552Z,0
2017-04-13T04:46:22.558Z,0
2017-04-13T04:47:22.521Z,0
2017-04-13T04:48:22.529Z,0
2017-04-13T04:49:22.242Z,0
2017-04-13T04:50:22.534Z,0
2017-04-13T04:51:22.545Z,0
2017-04-13T04:52:22.548Z,0
2017-04-13T04:53:22.562Z,0
2017-04-13T04:54:22.579Z,0
2017-04-13T04:55:22.600Z,0
2017-04-13T04:56:22.616Z,0
2017-04-13T04:57:22.632Z,0
2017-04-13T04:58:22.691Z,0
2017-04-13T04:59:22.669Z,0
2017-04-13T05:00:22.679Z,0
2017-04-13T05:01:22.753Z,0
2017-04-13T05:02:22.728Z,0
2017-04-13T05:03:22.731Z,0
2017-04-13T05:04:22.747Z,0
2017-04-13T05:05:22.756Z,0
2017-04-13T05:06:22.537Z,0
2017-04-13T05:07:22.798Z,0
2017-04-13T05:08:22.813Z,0
2017-04-13T05:09:22.545Z,0
2017-04-13T05:10:22.846Z,0
2017-04-13T05:11:22.861Z,0
2017-04-13T05:12:22.866Z,0
2017-04-13T05:13:22.912Z,0
2017-04-13T05:14:22.900Z,0
2017-04-13T05:15:22.615Z,0
2017-04-13T05:16:22.943Z,0
2017-04-13T05:17:22.959Z,5
2017-04-13T05:18:22.967Z,5
2017-04-13T05:19:22.995Z,0
2017-04-13T05:20:23.002Z,0
2017-04-13T05:21:22.708Z,0
2017-04-13T05:22:23.037Z,0
2017-04-13T05:23:23.057Z,0
2017-04-13T05:24:23.069Z,0
2017-04-13T05:25:23.087Z,0
2017-04-13T05:26:23.096Z,0
2017-04-13T05:27:23.111Z,0
2017-04-13T05:28:23.126Z,0
2017-04-13T05:29:23.143Z,5
2017-04-13T05:30:22.858Z,5
2017-04-13T05:31:23.180Z,0
2017-04-13T05:32:23.190Z,5
2017-04-13T05:33:23.213Z,5
2017-04-13T05:34:23.226Z,5
2017-04-13T05:35:23.243Z,5
2017-04-13T05:36:23.250Z,5
2017-04-13T05:37:23.279Z,5
2017-04-13T05:38:23.289Z,10
2017-04-13T05:39:23.305Z,5
2017-04-13T05:40:23.014Z,5
2017-04-13T05:41:23.338Z,5
2017-04-13T05:42:23.357Z,5
2017-04-13T05:43:23.363Z,10
2017-04-13T05:44:23.386Z,10
2017-04-13T05:45:23.442Z,5
2017-04-13T05:46:23.424Z,10
2017-04-13T05:47:23.139Z,10
2017-04-13T05:48:23.464Z,10
2017-04-13T05:49:23.469Z,10
2017-04-13T05:50:23.480Z,10
2017-04-13T05:51:23.503Z,10
2017-04-13T05:52:23.517Z,10
2017-04-13T05:53:22.899Z,10
2017-04-13T05:54:23.235Z,5
2017-04-13T05:55:23.556Z,5
2017-04-13T05:56:23.580Z,5
2017-04-13T05:57:23.606Z,5
2017-04-13T05:58:22.982Z,5
2017-04-13T05:59:23.626Z,5
2017-04-13T06:00:23.639Z,5
2017-04-13T06:01:23.658Z,5
2017-04-13T06:02:23.675Z,5
2017-04-13T06:03:23.693Z,5
2017-04-13T06:04:23.169Z,5
2017-04-13T06:05:23.734Z,5
2017-04-13T06:06:23.741Z,5
2017-04-13T06:07:23.435Z,5
2017-04-13T06:08:23.780Z,5
2017-04-13T06:09:23.788Z,5
2017-04-13T06:10:23.796Z,5
2017-04-13T06:11:23.822Z,5
2017-04-13T06:12:23.834Z,5
2017-04-13T06:13:23.849Z,5
2017-04-13T06:14:23.873Z,5
2017-04-13T06:15:23.887Z,5
2017-04-13T06:16:23.902Z,5
2017-04-13T06:17:23.933Z,5
2017-04-13T06:18:23.929Z,5
2017-04-13T06:19:23.945Z,5
2017-04-13T06:20:23.963Z,5
2017-04-13T06:21:23.978Z,5
2017-04-13T06:22:23.685Z,5
2017-04-13T06:23:24.016Z,5
2017-04-13T06:24:23.715Z,5
2017-04-13T06:25:24.089Z,5
2017-04-13T06:26:23.850Z,5
2017-04-13T06:27:24.178Z,5
2017-04-13T06:28:24.205Z,5
2017-04-13T06:29:24.218Z,5
2017-04-13T06:30:24.215Z,5
2017-04-13T06:31:23.823Z,5
2017-04-13T06:32:23.850Z,5
2017-04-13T06:33:24.229Z,5
2017-04-13T06:34:24.246Z,5
2017-04-13T06:35:24.257Z,5
2017-04-13T06:36:24.265Z,5
2017-04-13T06:37:24.262Z,5
2017-04-13T06:38:24.334Z,10
2017-04-13T06:39:23.963Z,10
2017-04-13T06:40:24.350Z,10
2017-04-13T06:41:24.351Z,10
2017-04-13T06:42:24.328Z,10
2017-04-13T06:43:24.331Z,10
2017-04-13T06:44:24.465Z,10
2017-04-13T06:45:24.618Z,15
2017-04-13T06:46:24.623Z,20
2017-04-13T06:47:24.632Z,20
2017-04-13T06:48:24.645Z,20
2017-04-13T06:49:24.612Z,20
2017-04-13T06:50:24.623Z,20
2017-04-13T06:51:24.698Z,15
2017-04-13T06:52:24.662Z,15
2017-04-13T06:53:24.670Z,15
2017-04-13T06:54:24.683Z,20
2017-04-13T06:55:24.708Z,20
2017-04-13T06:56:24.740Z,20
2017-04-13T06:57:24.464Z,20
2017-04-13T06:58:24.790Z,20
2017-04-13T06:59:24.787Z,20
2017-04-13T07:00:24.481Z,20
2017-04-13T07:01:24.793Z,20
2017-04-13T07:02:24.452Z,20
2017-04-13T07:03:24.799Z,25
2017-04-13T07:04:24.788Z,25
2017-04-13T07:05:24.797Z,25
2017-04-13T07:06:24.810Z,20
2017-04-13T07:07:24.819Z,25
2017-04-13T07:08:24.810Z,20
2017-04-13T07:09:24.549Z,20
2017-04-13T07:10:24.858Z,25
2017-04-13T07:11:24.955Z,25
2017-04-13T07:12:24.806Z,25
2017-04-13T07:13:24.823Z,25
2017-04-13T07:14:24.853Z,25
2017-04-13T07:15:24.880Z,25
2017-04-13T07:16:24.873Z,25
2017-04-13T07:17:24.897Z,25
2017-04-13T07:18:24.912Z,25
2017-04-13T07:19:24.930Z,25
2017-04-13T07:20:24.941Z,25
2017-04-13T07:21:25.185Z,25
2017-04-13T07:22:24.794Z,25
2017-04-13T07:23:24.980Z,25
2017-04-13T07:24:24.995Z,25
2017-04-13T07:25:25.015Z,25
2017-04-13T07:26:25.038Z,20
2017-04-13T07:27:25.054Z,20
2017-04-13T07:28:25.077Z,20
2017-04-13T07:29:25.087Z,20
2017-04-13T07:30:24.796Z,15
2017-04-13T07:31:25.114Z,10
2017-04-13T07:32:24.829Z,10
2017-04-13T07:33:24.847Z,5
2017-04-13T07:34:25.165Z,5
2017-04-13T07:35:25.197Z,5
2017-04-13T07:36:24.902Z,5
2017-04-13T07:37:25.220Z,10
2017-04-13T07:38:25.240Z,10
2017-04-13T07:39:24.976Z,5
2017-04-13T07:40:25.280Z,10
2017-04-13T07:41:24.664Z,10
2017-04-13T07:42:25.310Z,30
2017-04-13T07:43:25.024Z,20
2017-04-13T07:44:25.381Z,15
2017-04-13T07:45:25.359Z,10
2017-04-13T07:46:25.071Z,20
2017-04-13T07:47:24.770Z,20
2017-04-13T07:48:25.099Z,30
2017-04-13T07:49:25.114Z,35
2017-04-13T07:50:25.126Z,40
2017-04-13T07:51:25.143Z,35
2017-04-13T07:52:24.858Z,30
2017-04-13T07:53:24.866Z,30
2017-04-13T07:54:25.192Z,25
2017-04-13T07:55:24.890Z,30
2017-04-13T07:56:25.539Z,30
2017-04-13T07:57:25.251Z,30
2017-04-13T07:58:25.285Z,30
2017-04-13T07:59:25.588Z,30
2017-04-13T08:00:25.300Z,30
2017-04-13T08:01:25.632Z,35
2017-04-13T08:02:25.328Z,35
2017-04-13T08:03:25.660Z,35
2017-04-13T08:04:25.677Z,35
2017-04-13T08:05:25.698Z,35
2017-04-13T08:06:25.395Z,35
2017-04-13T08:07:25.727Z,35
2017-04-13T08:08:25.137Z,35
2017-04-13T08:09:25.134Z,35
2017-04-13T08:10:25.779Z,35
2017-04-13T08:11:25.173Z,35
2017-04-13T08:12:25.501Z,35
2017-04-13T08:13:25.525Z,35
2017-04-13T08:14:25.530Z,35
2017-04-13T08:15:25.550Z,35
2017-04-13T08:16:25.263Z,35
2017-04-13T08:17:25.585Z,35
2017-04-13T08:18:25.915Z,35
2017-04-13T08:19:25.942Z,35
2017-04-13T08:20:25.012Z,25
2017-04-13T08:21:25.975Z,25
2017-04-13T08:22:25.367Z,20
2017-04-13T08:23:26.007Z,25
2017-04-13T08:24:25.399Z,35
2017-04-13T08:25:25.449Z,40
2017-04-13T08:26:25.436Z,40
2017-04-13T08:27:26.083Z,35
2017-04-13T08:28:26.096Z,30
2017-04-13T08:29:26.108Z,30
2017-04-13T08:30:26.130Z,30
2017-04-13T08:31:26.149Z,35
2017-04-13T08:32:26.157Z,35
2017-04-13T08:33:26.174Z,35
2017-04-13T08:34:26.199Z,35
2017-04-13T08:35:25.600Z,35
2017-04-13T08:36:25.918Z,40
2017-04-13T08:37:25.627Z,40
2017-04-13T08:38:26.301Z,40
2017-04-13T08:39:26.295Z,40
2017-04-13T08:40:25.673Z,35
2017-04-13T08:41:26.008Z,30
2017-04-13T08:42:26.072Z,25
2017-04-13T08:43:25.730Z,25
2017-04-13T08:44:26.386Z,25
2017-04-13T08:45:26.394Z,25
2017-04-13T08:46:25.788Z,25
2017-04-13T08:47:25.851Z,30
2017-04-13T08:48:25.817Z,35
2017-04-13T08:49:26.486Z,35
2017-04-13T08:50:26.499Z,40
2017-04-13T08:51:25.883Z,40
2017-04-13T08:52:26.518Z,40
2017-04-13T08:53:26.649Z,45
2017-04-13T08:54:26.670Z,45
2017-04-13T08:55:26.669Z,40
2017-04-13T08:56:26.393Z,40
2017-04-13T08:57:26.716Z,40
2017-04-13T08:58:26.324Z,35
2017-04-13T08:59:26.762Z,35
2017-04-13T09:00:26.449Z,35
2017-04-13T09:01:26.457Z,30
2017-04-13T09:02:26.079Z,30
2017-04-13T09:03:26.087Z,30
2017-04-13T09:04:26.216Z,35
2017-04-13T09:05:26.121Z,45
2017-04-13T09:06:26.137Z,50
2017-04-13T09:07:26.162Z,45
2017-04-13T09:08:26.606Z,45
2017-04-13T09:09:26.611Z,40
2017-04-13T09:10:26.942Z,40
2017-04-13T09:11:26.346Z,40
2017-04-13T09:12:27.074Z,45
2017-04-13T09:13:26.328Z,40
2017-04-13T09:14:26.469Z,40
2017-04-13T09:15:26.482Z,45
2017-04-13T09:16:27.084Z,40
2017-04-13T09:17:26.752Z,45
2017-04-13T09:18:26.765Z,50
2017-04-13T09:19:26.515Z,50
2017-04-13T09:20:26.937Z,45
2017-04-13T09:21:26.913Z,40
2017-04-13T09:22:27.116Z,45
2017-04-13T09:23:27.122Z,45
2017-04-13T09:24:26.292Z,25
2017-04-13T09:25:27.130Z,50
2017-04-13T09:26:27.135Z,45
2017-04-13T09:27:26.631Z,25
2017-04-13T09:28:27.169Z,45
2017-04-13T09:29:26.964Z,45
2017-04-13T09:30:27.207Z,40
2017-04-13T09:31:27.213Z,45
2017-04-13T09:32:26.441Z,45
2017-04-13T09:33:26.632Z,45
2017-04-13T09:34:27.271Z,45
2017-04-13T09:35:27.300Z,35
2017-04-13T09:36:27.005Z,35
2017-04-13T09:37:27.327Z,45
2017-04-13T09:38:26.820Z,55
2017-04-13T09:39:27.363Z,55
2017-04-13T09:40:27.391Z,55
2017-04-13T09:41:27.161Z,55
2017-04-13T09:42:27.421Z,55
2017-04-13T09:43:27.132Z,50
2017-04-13T09:44:27.156Z,50
2017-04-13T09:45:27.169Z,50
2017-04-13T09:46:27.499Z,45
2017-04-13T09:47:27.521Z,45
2017-04-13T09:48:27.535Z,40
2017-04-13T09:49:27.242Z,40
2017-04-13T09:50:27.576Z,45
2017-04-13T09:51:26.983Z,50
2017-04-13T09:52:26.983Z,50
2017-04-13T09:53:27.017Z,50
2017-04-13T09:54:27.020Z,50
2017-04-13T09:55:27.664Z,50
2017-04-13T09:56:27.383Z,50
2017-04-13T09:57:27.702Z,50
2017-04-13T09:58:27.737Z,55
2017-04-13T09:59:27.432Z,55
2017-04-13T10:00:27.135Z,50
2017-04-13T10:01:26.859Z,50
2017-04-13T10:02:27.499Z,45
2017-04-13T10:03:27.188Z,40
2017-04-13T10:04:27.518Z,50
2017-04-13T10:05:27.226Z,55
2017-04-13T10:06:27.874Z,55
2017-04-13T10:07:27.583Z,55
2017-04-13T10:08:27.606Z,55
2017-04-13T10:09:27.630Z,55
2017-04-13T10:10:27.005Z,50
2017-04-13T10:11:27.654Z,55
2017-04-13T10:12:27.668Z,50
2017-04-13T10:13:27.064Z,45
2017-04-13T10:14:27.710Z,45
2017-04-13T10:15:27.727Z,50
2017-04-13T10:16:27.436Z,55
2017-04-13T10:17:27.767Z,55
2017-04-13T10:18:27.810Z,50
2017-04-13T10:19:28.122Z,40
2017-04-13T10:20:28.140Z,55
2017-04-13T10:21:27.840Z,60
2017-04-13T10:22:27.863Z,55
2017-04-13T10:23:28.192Z,55
2017-04-13T10:24:27.586Z,60
2017-04-13T10:25:28.230Z,60
2017-04-13T10:26:28.258Z,60
2017-04-13T10:27:28.269Z,65
2017-04-13T10:28:27.661Z,65
2017-04-13T10:29:28.310Z,65
2017-04-13T10:30:28.335Z,60
2017-04-13T10:31:28.051Z,55
2017-04-13T10:32:28.371Z,50
2017-04-13T10:33:28.387Z,55
2017-04-13T10:34:27.777Z,55
2017-04-13T10:35:28.424Z,60
2017-04-13T10:36:28.448Z,60
2017-04-13T10:37:28.508Z,60
2017-04-13T10:38:27.857Z,55
2017-04-13T10:39:28.190Z,55
2017-04-13T10:40:28.516Z,55
2017-04-13T10:41:28.538Z,55
2017-04-13T10:42:28.249Z,55
2017-04-13T10:43:28.278Z,60
2017-04-13T10:44:28.605Z,65
2017-04-13T10:45:28.308Z,60
2017-04-13T10:46:28.017Z,65
2017-04-13T10:47:28.350Z,65
2017-04-13T10:48:28.372Z,60
2017-04-13T10:49:28.860Z,60
2017-04-13T10:50:28.827Z,60
2017-04-13T10:51:28.584Z,55
2017-04-13T10:52:28.985Z,55
2017-04-13T10:53:28.971Z,55
2017-04-13T10:54:28.963Z,55
2017-04-13T10:55:28.992Z,55
2017-04-13T10:56:28.952Z,60
2017-04-13T10:57:28.965Z,60
2017-04-13T10:58:28.705Z,60
2017-04-13T10:59:29.007Z,60
2017-04-13T11:00:29.004Z,55
2017-04-13T11:01:28.146Z,55
2017-04-13T11:02:29.035Z,50
2017-04-13T11:03:28.976Z,50
2017-04-13T11:04:28.994Z,55
2017-04-13T11:05:29.022Z,55
2017-04-13T11:06:29.041Z,60
2017-04-13T11:07:29.051Z,60
2017-04-13T11:08:29.072Z,55
2017-04-13T11:09:29.102Z,50
2017-04-13T11:10:29.120Z,40
2017-04-13T11:11:28.908Z,30
2017-04-13T11:12:28.980Z,35
2017-04-13T11:13:29.243Z,40
2017-04-13T11:14:29.192Z,40
2017-04-13T11:15:29.001Z,40
2017-04-13T11:16:28.737Z,40
2017-04-13T11:17:28.630Z,40
2017-04-13T11:18:29.024Z,45
2017-04-13T11:19:28.992Z,45
2017-04-13T11:20:29.006Z,45
2017-04-13T11:21:29.022Z,45
2017-04-13T11:22:29.037Z,45
2017-04-13T11:23:28.749Z,45
2017-04-13T11:24:29.105Z,45
2017-04-13T11:25:29.419Z,40
2017-04-13T11:26:29.127Z,40
2017-04-13T11:27:29.142Z,40
2017-04-13T11:28:29.166Z,35
2017-04-13T11:29:29.496Z,35
2017-04-13T11:30:28.892Z,35
2017-04-13T11:31:28.919Z,30
2017-04-13T11:32:29.621Z,35
2017-04-13T11:33:29.784Z,35
2017-04-13T11:34:29.300Z,45
2017-04-13T11:35:29.620Z,45
2017-04-13T11:36:29.636Z,45
2017-04-13T11:37:29.708Z,45
2017-04-13T11:38:29.676Z,40
2017-04-13T11:39:29.704Z,35
2017-04-13T11:40:29.719Z,40
2017-04-13T11:41:29.745Z,50
2017-04-13T11:42:29.773Z,55
2017-04-13T11:43:29.783Z,50
2017-04-13T11:44:29.799Z,45
2017-04-13T11:45:29.817Z,40
2017-04-13T11:46:28.901Z,45
2017-04-13T11:47:29.551Z,40
2017-04-13T11:48:29.585Z,30
2017-04-13T11:49:29.281Z,40
2017-04-13T11:50:29.944Z,50
2017-04-13T11:51:29.649Z,50
2017-04-13T11:52:29.964Z,55
2017-04-13T11:53:29.986Z,50
2017-04-13T11:54:29.385Z,50
2017-04-13T11:55:29.398Z,50
2017-04-13T11:56:30.050Z,60
2017-04-13T11:57:29.123Z,50
2017-04-13T11:58:29.455Z,50
2017-04-13T11:59:29.790Z,50
2017-04-13T12:00:29.810Z,50
2017-04-13T12:01:29.835Z,55
2017-04-13T12:02:30.160Z,50
2017-04-13T12:03:30.188Z,50
2017-04-13T12:04:29.887Z,45
2017-04-13T12:05:29.905Z,45
2017-04-13T12:06:29.617Z,50
2017-04-13T12:07:29.948Z,50
2017-04-13T12:08:30.286Z,50
2017-04-13T12:09:29.672Z,50
2017-04-13T12:10:30.167Z,50
2017-04-13T12:11:30.110Z,55
2017-04-13T12:12:29.793Z,65
2017-04-13T12:13:29.943Z,70
2017-04-13T12:14:30.155Z,45
2017-04-13T12:15:30.162Z,35
2017-04-13T12:16:30.174Z,25
2017-04-13T12:17:29.982Z,20
2017-04-13T12:18:30.307Z,20
2017-04-13T12:19:30.303Z,25
2017-04-13T12:20:30.014Z,25
2017-04-13T12:21:30.558Z,20
2017-04-13T12:22:30.566Z,20
2017-04-13T12:23:30.589Z,25
2017-04-13T12:24:30.296Z,25
2017-04-13T12:25:30.633Z,20
2017-04-13T12:26:30.116Z,15
2017-04-13T12:27:30.680Z,25
2017-04-13T12:28:30.149Z,30
2017-04-13T12:29:30.715Z,30
2017-04-13T12:30:30.452Z,20
2017-04-13T12:31:30.443Z,20
2017-04-13T12:32:30.466Z,20
2017-04-13T12:33:30.806Z,20
2017-04-13T12:34:30.821Z,20
2017-04-13T12:35:30.522Z,15
2017-04-13T12:36:30.542Z,10
2017-04-13T12:37:30.561Z,10
2017-04-13T12:38:30.590Z,10
2017-04-13T12:39:30.603Z,10
2017-04-13T12:40:30.622Z,10
2017-04-13T12:41:30.966Z,15
2017-04-13T12:42:30.983Z,15
2017-04-13T12:43:30.685Z,15
2017-04-13T12:44:30.392Z,15
2017-04-13T12:45:31.045Z,15
2017-04-13T12:46:31.069Z,10
2017-04-13T12:47:30.762Z,5
2017-04-13T12:48:31.103Z,10
2017-04-13T12:49:31.115Z,5
2017-04-13T12:50:31.146Z,10
2017-04-13T12:51:31.165Z,10
2017-04-13T12:52:30.867Z,15
2017-04-13T12:53:31.249Z,10
2017-04-13T12:54:30.593Z,10
2017-04-13T12:55:30.606Z,15
2017-04-13T12:56:31.387Z,15
2017-04-13T12:57:30.967Z,15
2017-04-13T12:58:31.298Z,20
2017-04-13T12:59:30.716Z,20
2017-04-13T13:00:31.026Z,15
2017-04-13T13:01:30.744Z,15
2017-04-13T13:02:30.755Z,20
2017-04-13T13:03:31.394Z,15
2017-04-13T13:04:31.112Z,15
2017-04-13T13:05:31.441Z,20
2017-04-13T13:06:31.465Z,20
2017-04-13T13:07:31.164Z,20
2017-04-13T13:08:31.498Z,20
2017-04-13T13:09:31.204Z,20
2017-04-13T13:10:31.527Z,15
2017-04-13T13:11:31.243Z,20
2017-04-13T13:12:31.592Z,25
2017-04-13T13:13:31.595Z,30
2017-04-13T13:14:31.615Z,45
2017-04-13T13:15:31.316Z,50
2017-04-13T13:16:31.663Z,55
2017-04-13T13:17:31.051Z,50
2017-04-13T13:18:31.069Z,45
2017-04-13T13:19:31.726Z,35
2017-04-13T13:20:31.106Z,30
2017-04-13T13:21:31.758Z,25
2017-04-13T13:22:31.460Z,20
2017-04-13T13:23:31.161Z,25
2017-04-13T13:24:31.502Z,20
2017-04-13T13:25:31.523Z,30
2017-04-13T13:26:31.852Z,30
2017-04-13T13:27:31.243Z,40
2017-04-13T13:28:31.574Z,45
2017-04-13T13:29:31.598Z,40
2017-04-13T13:30:31.938Z,40
2017-04-13T13:31:31.961Z,45
2017-04-13T13:32:31.972Z,45
2017-04-13T13:33:31.983Z,40
2017-04-13T13:34:31.692Z,40
2017-04-13T13:35:31.718Z,25
2017-04-13T13:36:31.733Z,20
2017-04-13T13:37:32.073Z,15
2017-04-13T13:38:31.458Z,10
2017-04-13T13:39:31.790Z,15
2017-04-13T13:40:32.130Z,15
2017-04-13T13:41:31.837Z,15
2017-04-13T13:42:32.210Z,15
2017-04-13T13:43:32.181Z,15
2017-04-13T13:44:31.572Z,20
2017-04-13T13:45:31.902Z,25
2017-04-13T13:46:32.253Z,25
2017-04-13T13:47:31.951Z,20
2017-04-13T13:48:32.018Z,15
2017-04-13T13:49:31.993Z,15
2017-04-13T13:50:32.015Z,20
2017-04-13T13:51:32.339Z,25
2017-04-13T13:52:32.051Z,30
2017-04-13T13:53:32.378Z,35
2017-04-13T13:54:32.399Z,25
2017-04-13T13:55:32.108Z,20
2017-04-13T13:56:32.441Z,20
2017-04-13T13:57:32.151Z,30
2017-04-13T13:58:32.557Z,30
2017-04-13T13:59:32.592Z,25
2017-04-13T14:00:32.583Z,20
2017-04-13T14:01:32.572Z,20
2017-04-13T14:02:32.590Z,15
2017-04-13T14:03:32.597Z,20
2017-04-13T14:04:31.970Z,20
2017-04-13T14:05:32.308Z,15
2017-04-13T14:06:32.437Z,15
2017-04-13T14:07:32.445Z,20
2017-04-13T14:08:32.765Z,20
2017-04-13T14:09:32.803Z,20
2017-04-13T14:10:32.400Z,20
2017-04-13T14:11:32.843Z,20
2017-04-13T14:12:32.841Z,30
2017-04-13T14:13:32.858Z,35
2017-04-13T14:14:32.707Z,35
2017-04-13T14:15:33.133Z,40
2017-04-13T14:16:32.721Z,40
2017-04-13T14:17:33.151Z,35
2017-04-13T14:18:32.792Z,30
2017-04-13T14:19:33.170Z,30
2017-04-13T14:20:32.454Z,30
2017-04-13T14:21:32.139Z,35
2017-04-13T14:22:33.110Z,30
2017-04-13T14:23:32.814Z,15
2017-04-13T14:24:33.253Z,10
2017-04-13T14:25:33.262Z,10
2017-04-13T14:26:33.139Z,5
2017-04-13T14:27:33.157Z,5
2017-04-13T14:28:33.166Z,5
2017-04-13T14:29:33.171Z,0